createdAt,value
2022-08-05T00:01:28.367Z,20.30
2022-08-05T00:03:57.025Z,20.30
2022-08-05T00:06:29.517Z,20.20
2022-08-05T00:09:00.575Z,20.20
2022-08-05T00:11:34.576Z,20.20
2022-08-05T00:14:02.166Z,20.20
2022-08-05T00:16:35.590Z,20.10
2022-08-05T00:19:02.549Z,20.20
2022-08-05T00:21:30.516Z,20.20
2022-08-05T00:24:05.070Z,20.10
2022-08-05T00:26:37.557Z,20.20
2022-08-05T00:29:04.269Z,20.30
2022-08-05T00:31:53.427Z,20.30
2022-08-05T00:34:53.479Z,20.30
2022-08-05T00:37:13.094Z,20.30
2022-08-05T00:39:57.232Z,20.30
2022-08-05T00:42:38.358Z,20.30
2022-08-05T00:45:08.392Z,20.30
2022-08-05T00:47:53.318Z,20.20
2022-08-05T00:50:25.295Z,20.20
2022-08-05T00:52:53.239Z,20.20
2022-08-05T00:55:20.137Z,20.20
2022-08-05T00:57:58.199Z,20.20
2022-08-05T01:00:26.897Z,20.10
2022-08-05T01:02:53.612Z,19.90
2022-08-05T01:05:20.254Z,19.90
2022-08-05T01:08:42.110Z,19.90
2022-08-05T01:10:40.470Z,19.80
2022-08-05T01:13:58.715Z,19.80
2022-08-05T01:16:39.035Z,19.80
2022-08-05T01:19:09.571Z,19.70
2022-08-05T01:21:52.645Z,19.70
2022-08-05T01:24:32.422Z,19.70
2022-08-05T01:27:17.976Z,19.80
2022-08-05T01:29:48.826Z,19.80
2022-08-05T01:32:19.662Z,19.70
2022-08-05T01:34:57.152Z,19.70
2022-08-05T01:37:31.300Z,19.70
2022-08-05T01:40:01.029Z,19.70
2022-08-05T01:42:29.653Z,19.60
2022-08-05T01:44:56.709Z,19.70
2022-08-05T01:47:38.792Z,19.70
2022-08-05T01:50:15.196Z,19.70
2022-08-05T01:52:42.965Z,19.70
2022-08-05T01:55:12.130Z,19.80
2022-08-05T01:58:12.246Z,19.80
2022-08-05T02:00:30.713Z,19.90
2022-08-05T02:02:59.999Z,20.00
2022-08-05T02:05:34.310Z,20.10
2022-08-05T02:08:03.014Z,20.10
2022-08-05T02:10:32.929Z,20.10
2022-08-05T02:13:15.788Z,20.10
2022-08-05T02:15:55.359Z,19.90
2022-08-05T02:18:35.237Z,19.80
2022-08-05T02:21:14.974Z,19.80
2022-08-05T02:23:43.637Z,19.90
2022-08-05T02:26:13.478Z,19.90
2022-08-05T02:28:41.648Z,19.90
2022-08-05T02:31:14.542Z,19.90
2022-08-05T02:33:44.982Z,19.90
2022-08-05T02:36:17.689Z,20.00
2022-08-05T02:38:53.702Z,20.10
2022-08-05T02:41:22.785Z,20.10
2022-08-05T02:44:06.277Z,20.20
2022-08-05T02:46:53.323Z,20.30
2022-08-05T02:49:26.410Z,20.30
2022-08-05T02:52:04.313Z,20.30
2022-08-05T02:54:35.632Z,20.40
2022-08-05T02:57:05.202Z,20.50
2022-08-05T02:59:50.425Z,20.40
2022-08-05T03:02:19.070Z,20.40
2022-08-05T03:04:48.039Z,20.40
2022-08-05T03:07:40.400Z,20.50
2022-08-05T03:10:08.474Z,20.50
2022-08-05T03:12:39.781Z,20.60
2022-08-05T03:15:09.155Z,20.50
2022-08-05T03:17:41.602Z,20.40
2022-08-05T03:20:09.072Z,20.40
2022-08-05T03:22:37.005Z,20.30
2022-08-05T03:25:31.653Z,20.40
2022-08-05T03:27:59.944Z,20.40
2022-08-05T03:30:33.448Z,20.40
2022-08-05T03:33:01.100Z,20.40
2022-08-05T03:35:28.934Z,20.40
2022-08-05T03:37:59.417Z,20.40
2022-08-05T03:40:32.120Z,20.40
2022-08-05T03:43:01.519Z,20.40
2022-08-05T03:45:57.622Z,20.50
2022-08-05T03:48:29.223Z,20.50
2022-08-05T03:52:38.455Z,20.50
2022-08-05T03:55:53.956Z,20.40
2022-08-05T03:57:01.647Z,20.40
2022-08-05T04:00:09.715Z,20.40
2022-08-05T04:02:52.230Z,20.40
2022-08-05T04:05:28.004Z,20.50
2022-08-05T04:08:01.622Z,20.50
2022-08-05T04:10:37.116Z,20.50
2022-08-05T04:13:05.392Z,20.50
2022-08-05T04:15:33.137Z,20.50
2022-08-05T04:18:03.908Z,20.40
2022-08-05T04:20:33.783Z,20.50
2022-08-05T04:23:00.442Z,20.60
2022-08-05T04:25:56.715Z,20.70
2022-08-05T04:28:14.548Z,20.80
2022-08-05T04:30:41.733Z,20.90
2022-08-05T04:33:09.743Z,21.00
2022-08-05T04:36:16.439Z,21.00
2022-08-05T04:38:39.463Z,21.10
2022-08-05T04:41:07.293Z,21.90
2022-08-05T04:43:34.313Z,22.80
2022-08-05T04:46:01.089Z,23.00
2022-08-05T04:48:28.470Z,22.90
2022-08-05T04:51:02.581Z,22.70
2022-08-05T04:53:33.610Z,22.40
2022-08-05T04:56:14.643Z,22.30
2022-08-05T04:58:49.738Z,22.20
2022-08-05T05:02:04.082Z,22.20
2022-08-05T05:04:03.591Z,22.10
2022-08-05T05:06:36.067Z,22.10
2022-08-05T05:09:17.234Z,22.10
2022-08-05T05:11:54.481Z,22.10
2022-08-05T05:14:28.046Z,22.30
2022-08-05T05:16:58.800Z,22.80
2022-08-05T05:19:27.406Z,22.80
2022-08-05T05:22:03.672Z,22.60
2022-08-05T05:24:58.365Z,22.40
2022-08-05T05:27:44.712Z,22.30
2022-08-05T05:30:15.674Z,22.10
2022-08-05T05:33:00.747Z,22.00
2022-08-05T05:35:31.644Z,21.90
2022-08-05T05:38:08.906Z,21.90
2022-08-05T05:40:36.305Z,21.90
2022-08-05T05:43:03.174Z,22.10
2022-08-05T05:45:30.048Z,22.30
2022-08-05T05:48:06.679Z,22.40
2022-08-05T05:50:42.529Z,22.50
2022-08-05T05:53:21.399Z,22.70
2022-08-05T05:55:52.097Z,22.90
2022-08-05T05:58:31.753Z,23.00
2022-08-05T06:01:02.427Z,23.20
2022-08-05T06:03:53.971Z,23.40
2022-08-05T06:06:27.720Z,24.70
2022-08-05T06:08:54.863Z,28.20
2022-08-05T06:11:21.512Z,30.70
2022-08-05T06:13:50.593Z,33.20
2022-08-05T06:16:28.885Z,34.60
2022-08-05T06:19:00.888Z,35.90
2022-08-05T06:21:37.603Z,36.50
2022-08-05T06:24:06.216Z,37.60
2022-08-05T06:26:35.096Z,38.20
2022-08-05T06:29:23.622Z,38.80
2022-08-05T06:31:50.618Z,39.50
2022-08-05T06:34:20.134Z,39.20
2022-08-05T06:36:56.910Z,39.50
2022-08-05T06:39:27.236Z,38.70
2022-08-05T06:41:56.090Z,36.90
2022-08-05T06:44:25.403Z,37.50
2022-08-05T06:46:52.800Z,38.00
2022-08-05T06:49:21.513Z,38.50
2022-08-05T06:52:08.016Z,37.90
2022-08-05T06:54:54.621Z,39.00
2022-08-05T06:57:57.294Z,40.50
2022-08-05T07:00:09.828Z,40.80
2022-08-05T07:02:43.543Z,40.60
2022-08-05T07:05:14.388Z,41.60
2022-08-05T07:07:48.874Z,40.90
2022-08-05T07:10:16.508Z,42.00
2022-08-05T07:13:02.564Z,41.90
2022-08-05T07:16:01.141Z,42.40
2022-08-05T07:18:31.835Z,42.20
2022-08-05T07:20:58.836Z,42.30
2022-08-05T07:23:32.585Z,42.30
2022-08-05T07:25:59.465Z,42.10
2022-08-05T07:28:26.512Z,42.20
2022-08-05T07:30:54.909Z,42.60
2022-08-05T07:33:36.409Z,41.40
2022-08-05T07:36:20.762Z,40.20
2022-08-05T07:38:48.957Z,40.10
2022-08-05T07:42:08.645Z,40.80
2022-08-05T07:44:05.602Z,40.20
2022-08-05T07:46:41.343Z,38.80
2022-08-05T07:49:14.844Z,39.20
2022-08-05T07:51:54.038Z,40.40
2022-08-05T07:54:31.286Z,41.10
2022-08-05T07:57:16.795Z,40.80
2022-08-05T07:59:49.510Z,40.30
2022-08-05T08:02:17.801Z,41.20
2022-08-05T08:04:46.048Z,40.90
2022-08-05T08:07:13.167Z,41.40
2022-08-05T08:09:39.922Z,42.00
2022-08-05T08:12:15.915Z,42.70
2022-08-05T08:14:53.741Z,41.60
2022-08-05T08:17:21.707Z,41.00
2022-08-05T08:20:10.080Z,40.50
2022-08-05T08:22:35.895Z,40.60
2022-08-05T08:25:02.838Z,40.10
2022-08-05T08:27:38.003Z,39.50
2022-08-05T08:30:29.936Z,38.80
2022-08-05T08:33:02.603Z,38.30
2022-08-05T08:35:34.984Z,38.60
2022-08-05T08:38:08.043Z,37.90
2022-08-05T08:40:35.328Z,37.80
2022-08-05T08:44:56.469Z,37.60
2022-08-05T08:45:50.234Z,37.80
2022-08-05T08:48:41.590Z,37.10
2022-08-05T08:52:01.768Z,36.60
2022-08-05T08:53:51.964Z,36.60
2022-08-05T08:56:20.971Z,36.80
2022-08-05T08:58:49.576Z,36.30
2022-08-05T09:01:18.771Z,35.70
2022-08-05T09:03:48.216Z,35.40
2022-08-05T09:06:21.425Z,35.50
2022-08-05T09:08:50.815Z,35.70
2022-08-05T09:11:17.576Z,35.50
2022-08-05T09:14:55.395Z,36.10
2022-08-05T09:16:51.617Z,36.10
2022-08-05T09:19:19.166Z,36.20
2022-08-05T09:22:24.909Z,36.10
2022-08-05T09:24:42.584Z,35.90
2022-08-05T09:27:09.591Z,36.00
2022-08-05T09:29:44.754Z,36.50
2022-08-05T09:32:40.934Z,36.20
2022-08-05T09:35:09.095Z,35.90
2022-08-05T09:38:12.343Z,36.10
2022-08-05T09:40:29.590Z,35.70
2022-08-05T09:42:56.442Z,34.90
2022-08-05T09:46:07.915Z,34.60
2022-08-05T09:48:21.017Z,34.10
2022-08-05T09:50:51.460Z,33.50
2022-08-05T09:53:26.051Z,33.00
2022-08-05T09:56:13.042Z,32.70
2022-08-05T09:58:41.973Z,32.00
2022-08-05T10:01:14.615Z,31.50
2022-08-05T10:03:59.153Z,31.20
2022-08-05T10:06:27.814Z,31.60
2022-08-05T10:08:55.629Z,32.30
2022-08-05T10:11:22.821Z,32.80
2022-08-05T10:13:49.856Z,33.70
2022-08-05T10:16:52.751Z,34.50
2022-08-05T10:19:23.870Z,34.60
2022-08-05T10:22:08.116Z,34.90
2022-08-05T10:24:39.787Z,34.80
2022-08-05T10:27:07.590Z,34.00
2022-08-05T10:30:06.608Z,34.00
2022-08-05T10:32:53.354Z,34.50
2022-08-05T10:35:10.566Z,34.40
2022-08-05T10:37:44.573Z,34.90
2022-08-05T10:40:19.567Z,35.20
2022-08-05T10:42:47.802Z,34.90
2022-08-05T10:45:23.769Z,34.40
2022-08-05T10:48:31.127Z,34.00
2022-08-05T10:51:01.534Z,33.90
2022-08-05T10:53:34.694Z,33.40
2022-08-05T10:56:14.667Z,33.80
2022-08-05T10:58:58.483Z,33.60
2022-08-05T11:01:54.928Z,33.70
2022-08-05T11:04:28.270Z,33.90
2022-08-05T11:06:58.051Z,34.20
2022-08-05T11:09:39.276Z,34.30
2022-08-05T11:12:31.247Z,34.40
2022-08-05T11:15:19.353Z,34.30
2022-08-05T11:18:09.544Z,34.00
2022-08-05T11:20:41.452Z,34.00
2022-08-05T11:23:33.297Z,34.20
2022-08-05T11:26:32.096Z,34.30
2022-08-05T11:29:11.646Z,34.50
2022-08-05T11:31:56.271Z,34.50
2022-08-05T11:34:37.604Z,34.10
2022-08-05T11:37:06.234Z,34.00
2022-08-05T11:40:00.202Z,34.00
2022-08-05T11:42:31.568Z,33.40
2022-08-05T11:45:02.389Z,33.60
2022-08-05T11:47:49.484Z,33.30
2022-08-05T11:50:17.271Z,33.40
2022-08-05T11:52:48.883Z,33.30
2022-08-05T11:55:16.360Z,33.20
2022-08-05T11:58:09.771Z,33.30
2022-08-05T12:00:38.447Z,33.40
2022-08-05T12:03:29.242Z,33.50
2022-08-05T12:06:03.111Z,33.70
2022-08-05T12:08:33.340Z,34.00
2022-08-05T12:11:06.038Z,34.00
2022-08-05T12:13:49.228Z,34.00
2022-08-05T12:16:18.122Z,33.60
2022-08-05T12:18:52.201Z,33.60
2022-08-05T12:21:30.610Z,33.60
2022-08-05T12:24:08.881Z,34.10
2022-08-05T12:26:36.980Z,34.40
2022-08-05T12:29:05.334Z,34.30
2022-08-05T12:31:47.629Z,34.50
2022-08-05T12:34:23.809Z,34.30
2022-08-05T12:36:53.569Z,34.10
2022-08-05T12:39:20.870Z,34.40
2022-08-05T12:41:48.698Z,34.50
2022-08-05T12:44:28.656Z,34.50
2022-08-05T12:47:01.824Z,34.60
2022-08-05T12:50:03.252Z,34.50
2022-08-05T12:52:30.394Z,34.70
2022-08-05T12:55:15.737Z,34.80
2022-08-05T12:58:39.029Z,35.00
2022-08-05T13:02:01.159Z,34.80
2022-08-05T13:03:19.961Z,34.60
2022-08-05T13:05:50.039Z,34.70
2022-08-05T13:08:19.638Z,34.80
2022-08-05T13:10:50.682Z,34.90
2022-08-05T13:14:06.132Z,35.20
2022-08-05T13:16:11.921Z,34.90
2022-08-05T13:18:50.678Z,34.40
2022-08-05T13:21:17.337Z,34.10
2022-08-05T13:23:50.835Z,34.20
2022-08-05T13:26:20.178Z,34.10
2022-08-05T13:28:49.604Z,34.40
2022-08-05T13:31:20.023Z,34.60
2022-08-05T13:34:22.600Z,34.70
2022-08-05T13:36:52.378Z,34.60
2022-08-05T13:39:24.649Z,34.50
2022-08-05T13:42:05.933Z,34.50
2022-08-05T13:44:32.676Z,34.80
2022-08-05T13:47:04.747Z,34.30
2022-08-05T13:49:35.613Z,34.30
2022-08-05T13:52:11.638Z,34.40
2022-08-05T13:54:38.687Z,34.10
2022-08-05T13:57:06.519Z,33.60
2022-08-05T13:59:33.332Z,33.70
2022-08-05T14:02:03.100Z,33.50
2022-08-05T14:04:51.159Z,33.50
2022-08-05T14:07:56.344Z,33.70
2022-08-05T14:10:09.356Z,33.50
2022-08-05T14:12:36.617Z,33.60
2022-08-05T14:15:05.927Z,33.70
2022-08-05T14:17:50.541Z,34.00
2022-08-05T14:20:21.697Z,34.00
2022-08-05T14:22:54.379Z,34.30
2022-08-05T14:25:22.456Z,34.50
2022-08-05T14:27:50.874Z,34.60
2022-08-05T14:30:20.128Z,34.50
2022-08-05T14:32:47.663Z,34.00
2022-08-05T14:35:14.413Z,33.70
2022-08-05T14:37:45.307Z,33.70
2022-08-05T14:40:16.666Z,33.70
2022-08-05T14:42:43.899Z,33.60
2022-08-05T14:45:10.786Z,33.60
2022-08-05T14:48:03.543Z,33.40
2022-08-05T14:50:25.357Z,33.40
2022-08-05T14:52:57.740Z,33.20
2022-08-05T14:55:38.356Z,33.20
2022-08-05T14:58:11.241Z,33.20
2022-08-05T15:00:39.705Z,32.90
2022-08-05T15:03:27.210Z,32.90
2022-08-05T15:06:07.576Z,33.00
2022-08-05T15:08:59.315Z,33.20
2022-08-05T15:11:53.135Z,33.20
2022-08-05T15:14:33.314Z,33.30
2022-08-05T15:17:01.128Z,33.20
2022-08-05T15:19:27.896Z,33.40
2022-08-05T15:22:00.047Z,33.30
2022-08-05T15:24:27.565Z,33.30
2022-08-05T15:26:55.998Z,33.30
2022-08-05T15:29:23.712Z,33.20
2022-08-05T15:31:56.606Z,33.20
2022-08-05T15:34:32.105Z,33.30
2022-08-05T15:37:04.839Z,33.30
2022-08-05T15:40:58.762Z,33.20
2022-08-05T15:42:55.071Z,32.80
2022-08-05T15:45:06.916Z,32.80
2022-08-05T15:47:36.438Z,32.70
2022-08-05T15:50:03.951Z,32.50
2022-08-05T15:52:53.128Z,32.20
2022-08-05T15:55:19.888Z,31.80
2022-08-05T15:57:52.149Z,31.60
2022-08-05T16:00:26.220Z,31.50
2022-08-05T16:03:05.619Z,31.30
2022-08-05T16:05:32.309Z,31.10
2022-08-05T16:07:59.075Z,31.10
2022-08-05T16:10:27.125Z,31.00
2022-08-05T16:12:56.029Z,31.10
2022-08-05T16:15:23.450Z,31.10
2022-08-05T16:17:57.716Z,31.20
2022-08-05T16:20:25.442Z,31.10
2022-08-05T16:22:52.114Z,31.00
2022-08-05T16:25:18.805Z,31.00
2022-08-05T16:28:05.067Z,30.80
2022-08-05T16:30:34.192Z,30.60
2022-08-05T16:33:02.786Z,30.40
2022-08-05T16:35:33.467Z,30.00
2022-08-05T16:38:01.854Z,30.10
2022-08-05T16:40:36.886Z,30.10
2022-08-05T16:43:04.345Z,30.10
2022-08-05T16:46:07.209Z,30.20
2022-08-05T16:48:25.978Z,30.00
2022-08-05T16:50:59.803Z,29.90
2022-08-05T16:53:31.835Z,29.70
2022-08-05T16:55:59.568Z,29.50
2022-08-05T16:58:26.265Z,29.60
2022-08-05T17:00:53.112Z,29.50
2022-08-05T17:03:20.852Z,29.50
2022-08-05T17:05:53.697Z,29.40
2022-08-05T17:08:36.799Z,29.50
2022-08-05T17:11:08.224Z,29.30
2022-08-05T17:13:37.143Z,29.50
2022-08-05T17:16:27.914Z,29.60
2022-08-05T17:18:55.004Z,29.60
2022-08-05T17:21:23.511Z,29.60
2022-08-05T17:24:04.520Z,29.30
2022-08-05T17:26:35.407Z,29.30
2022-08-05T17:29:04.206Z,29.10
2022-08-05T17:31:57.356Z,29.10
2022-08-05T17:34:21.022Z,29.20
2022-08-05T17:36:57.061Z,29.20
2022-08-05T17:39:33.559Z,29.10
2022-08-05T17:42:17.881Z,28.90
2022-08-05T17:44:50.458Z,29.00
2022-08-05T17:47:23.043Z,29.10
2022-08-05T17:50:04.005Z,29.00
2022-08-05T17:52:53.201Z,28.80
2022-08-05T17:55:21.869Z,28.40
2022-08-05T17:57:50.278Z,28.10
2022-08-05T18:00:18.555Z,28.00
2022-08-05T18:02:47.193Z,27.90
2022-08-05T18:05:17.467Z,27.90
2022-08-05T18:07:44.617Z,27.70
2022-08-05T18:10:20.488Z,27.60
2022-08-05T18:12:48.436Z,27.60
2022-08-05T18:15:17.412Z,27.50
2022-08-05T18:17:59.026Z,27.50
2022-08-05T18:20:32.030Z,27.30
2022-08-05T18:23:00.731Z,27.20
2022-08-05T18:25:36.884Z,27.10
2022-08-05T18:28:06.571Z,26.90
2022-08-05T18:30:33.731Z,26.80
2022-08-05T18:33:01.110Z,26.60
2022-08-05T18:35:59.640Z,26.40
2022-08-05T18:38:19.093Z,26.40
2022-08-05T18:41:55.278Z,26.30
2022-08-05T18:43:38.006Z,26.20
2022-08-05T18:46:09.752Z,26.30
2022-08-05T18:48:41.581Z,26.30
2022-08-05T18:52:06.598Z,26.20
2022-08-05T18:54:14.324Z,26.30
2022-08-05T18:56:40.980Z,26.30
2022-08-05T18:59:43.409Z,26.20
2022-08-05T19:01:57.060Z,26.20
2022-08-05T19:04:25.654Z,26.20
2022-08-05T19:06:53.764Z,26.10
2022-08-05T19:09:21.280Z,26.00
2022-08-05T19:12:00.210Z,26.00
2022-08-05T19:14:59.570Z,26.00
2022-08-05T19:17:15.486Z,25.90
2022-08-05T19:19:46.962Z,25.90
2022-08-05T19:22:17.260Z,25.80
2022-08-05T19:24:56.127Z,25.70
2022-08-05T19:27:24.239Z,25.50
2022-08-05T19:29:57.212Z,25.50
2022-08-05T19:32:26.250Z,25.40
2022-08-05T19:34:55.856Z,25.40
2022-08-05T19:37:29.997Z,25.30
2022-08-05T19:40:10.875Z,25.20
2022-08-05T19:42:38.874Z,25.10
2022-08-05T19:45:07.085Z,25.10
2022-08-05T19:47:34.704Z,25.00
2022-08-05T19:50:11.815Z,25.00
2022-08-05T19:52:39.277Z,24.90
2022-08-05T19:56:11.520Z,24.90
2022-08-05T19:58:19.514Z,24.90
2022-08-05T20:00:40.351Z,24.90
2022-08-05T20:03:08.937Z,24.90
2022-08-05T20:05:50.033Z,24.90
2022-08-05T20:08:17.463Z,24.80
2022-08-05T20:10:44.148Z,24.70
2022-08-05T20:13:16.207Z,24.60
2022-08-05T20:15:52.406Z,24.60
2022-08-05T20:18:34.030Z,24.50
2022-08-05T20:21:04.737Z,24.50
2022-08-05T20:23:40.766Z,24.40
2022-08-05T20:26:17.722Z,24.30
2022-08-05T20:28:45.364Z,24.30
2022-08-05T20:31:12.103Z,24.30
2022-08-05T20:33:38.771Z,24.20
2022-08-05T20:36:10.097Z,24.20
2022-08-05T20:38:38.102Z,24.10
2022-08-05T20:41:08.315Z,24.00
2022-08-05T20:44:00.428Z,23.90
2022-08-05T20:46:24.987Z,23.80
2022-08-05T20:48:52.215Z,23.70
2022-08-05T20:51:18.883Z,23.60
2022-08-05T20:53:55.222Z,23.50
2022-08-05T20:56:28.911Z,23.40
2022-08-05T20:58:56.793Z,23.50
2022-08-05T21:01:37.170Z,23.40
2022-08-05T21:04:07.218Z,23.40
2022-08-05T21:06:37.302Z,23.40
2022-08-05T21:09:06.972Z,23.40
2022-08-05T21:12:08.154Z,23.40
2022-08-05T21:14:20.432Z,23.30
2022-08-05T21:16:53.460Z,23.30
2022-08-05T21:19:20.312Z,23.30
2022-08-05T21:21:50.511Z,23.10
2022-08-05T21:24:19.546Z,23.10
2022-08-05T21:26:56.148Z,23.00
2022-08-05T21:29:26.178Z,23.00
2022-08-05T21:31:53.782Z,23.00
2022-08-05T21:34:20.868Z,22.90
2022-08-05T21:36:50.801Z,22.90
2022-08-05T21:39:27.007Z,22.80
2022-08-05T21:42:01.984Z,22.60
2022-08-05T21:44:29.771Z,22.50
2022-08-05T21:46:57.974Z,22.30
2022-08-05T21:49:56.861Z,22.20
2022-08-05T21:52:22.710Z,22.20
2022-08-05T21:54:55.047Z,22.10
2022-08-05T21:57:31.219Z,22.00
2022-08-05T22:00:06.000Z,22.00
2022-08-05T22:02:33.402Z,21.90
2022-08-05T22:05:00.368Z,21.80
2022-08-05T22:07:40.362Z,21.70
2022-08-05T22:10:15.696Z,21.60
2022-08-05T22:12:44.963Z,21.70
2022-08-05T22:16:00.887Z,21.70
2022-08-05T22:18:04.720Z,21.70
2022-08-05T22:20:31.459Z,21.80
2022-08-05T22:23:21.383Z,21.80
2022-08-05T22:26:10.591Z,21.80
2022-08-05T22:28:38.637Z,21.60
2022-08-05T22:31:05.971Z,21.60
2022-08-05T22:33:58.112Z,21.70
2022-08-05T22:36:23.853Z,21.60
2022-08-05T22:38:51.346Z,21.50
2022-08-05T22:41:26.436Z,21.60
2022-08-05T22:44:05.134Z,21.60
2022-08-05T22:46:31.976Z,21.50
2022-08-05T22:49:01.944Z,21.40
2022-08-05T22:52:02.752Z,21.40
2022-08-05T22:54:15.300Z,21.40
2022-08-05T22:56:42.098Z,21.50
2022-08-05T22:59:43.663Z,21.50
2022-08-05T23:02:05.610Z,21.50
2022-08-05T23:04:34.847Z,21.50
2022-08-05T23:07:01.743Z,21.50
2022-08-05T23:09:57.666Z,21.30
2022-08-05T23:12:17.784Z,21.30
2022-08-05T23:14:44.770Z,21.20
2022-08-05T23:17:35.051Z,21.20
2022-08-05T23:20:16.326Z,21.20
2022-08-05T23:22:47.451Z,21.10
2022-08-05T23:25:17.439Z,21.10
2022-08-05T23:28:01.791Z,21.10
2022-08-05T23:30:29.091Z,21.00
2022-08-05T23:32:57.911Z,21.10
2022-08-05T23:35:34.063Z,21.10
2022-08-05T23:38:01.046Z,21.10
2022-08-05T23:40:30.832Z,21.10
2022-08-05T23:42:57.498Z,21.10
2022-08-05T23:45:24.209Z,21.10
2022-08-05T23:47:53.572Z,21.00
2022-08-05T23:50:20.600Z,20.90
2022-08-05T23:52:50.353Z,20.90
2022-08-05T23:55:18.018Z,20.70
2022-08-05T23:57:44.745Z,20.60
